sensor_id;sensor_type;location;lat;lon;timestamp;pressure;altitude;pressure_sealevel;temperature;humidity
22096;BME280;24083;55.670;37.568;2023-05-23T00:04:39;99363.53;;;19.16;nan
22096;BME280;24083;55.670;37.568;2023-05-23T00:07:07;99351.81;;;18.97;nan
22096;BME280;24083;55.670;37.568;2023-05-23T00:09:36;99361.41;;;18.98;nan
22096;BME280;24083;55.670;37.568;2023-05-23T00:12:02;99368.00;;;19.04;nan
22096;BME280;24083;55.670;37.568;2023-05-23T00:14:28;99358.97;;;18.95;nan
22096;BME280;24083;55.670;37.568;2023-05-23T00:19:48;99365.97;;;18.96;nan
22096;BME280;24083;55.670;37.568;2023-05-23T00:22:17;99367.41;;;19.00;nan
22096;BME280;24083;55.670;37.568;2023-05-23T00:24:44;99367.41;;;19.00;nan
22096;BME280;24083;55.670;37.568;2023-05-23T00:33:05;99371.94;;;18.87;nan
22096;BME280;24083;55.670;37.568;2023-05-23T00:35:33;99361.63;;;18.83;nan
22096;BME280;24083;55.670;37.568;2023-05-23T00:37:59;99361.66;;;19.06;nan
22096;BME280;24083;55.670;37.568;2023-05-23T00:43:45;99363.53;;;18.93;nan
22096;BME280;24083;55.670;37.568;2023-05-23T00:46:12;99356.09;;;18.87;nan
22096;BME280;24083;55.670;37.568;2023-05-23T00:48:39;99356.00;;;19.00;nan
22096;BME280;24083;55.670;37.568;2023-05-23T00:51:37;99357.81;;;18.99;nan
22096;BME280;24083;55.670;37.568;2023-05-23T01:00:40;99363.19;;;18.63;nan
22096;BME280;24083;55.670;37.568;2023-05-23T01:03:06;99352.03;;;18.37;nan
22096;BME280;24083;55.670;37.568;2023-05-23T01:28:57;99339.78;;;18.93;nan
22096;BME280;24083;55.670;37.568;2023-05-23T01:42:48;99355.75;;;18.80;nan
22096;BME280;24083;55.670;37.568;2023-05-23T01:45:17;99349.09;;;19.31;nan
22096;BME280;24083;55.670;37.568;2023-05-23T01:47:43;99337.00;;;19.06;nan
22096;BME280;24083;55.670;37.568;2023-05-23T01:53:07;99328.97;;;19.07;nan
22096;BME280;24083;55.670;37.568;2023-05-23T01:55:37;99325.25;;;19.10;nan
22096;BME280;24083;55.670;37.568;2023-05-23T02:00:59;99332.28;;;19.21;nan
22096;BME280;24083;55.670;37.568;2023-05-23T02:03:27;99324.91;;;19.03;nan
22096;BME280;24083;55.670;37.568;2023-05-23T02:12:23;99323.88;;;19.81;nan
22096;BME280;24083;55.670;37.568;2023-05-23T02:23:47;99325.09;;;19.11;nan
22096;BME280;24083;55.670;37.568;2023-05-23T02:36:58;99304.22;;;19.41;nan
22096;BME280;24083;55.670;37.568;2023-05-23T02:42:32;99316.63;;;19.40;nan
22096;BME280;24083;55.670;37.568;2023-05-23T02:44:59;99322.22;;;19.15;nan
22096;BME280;24083;55.670;37.568;2023-05-23T02:47:27;99322.16;;;19.37;nan
22096;BME280;24083;55.670;37.568;2023-05-23T02:49:55;99311.41;;;19.18;nan
22096;BME280;24083;55.670;37.568;2023-05-23T02:52:20;99312.19;;;19.62;nan
22096;BME280;24083;55.670;37.568;2023-05-23T02:54:47;99322.31;;;19.57;nan
22096;BME280;24083;55.670;37.568;2023-05-23T02:57:25;99331.97;;;19.47;nan
22096;BME280;24083;55.670;37.568;2023-05-23T02:59:52;99328.50;;;19.67;nan
22096;BME280;24083;55.670;37.568;2023-05-23T03:02:28;99332.13;;;19.66;nan
22096;BME280;24083;55.670;37.568;2023-05-23T03:04:56;99329.69;;;19.75;nan
22096;BME280;24083;55.670;37.568;2023-05-23T03:10:13;99336.19;;;19.70;nan
22096;BME280;24083;55.670;37.568;2023-05-23T03:36:21;99311.97;;;21.40;nan
22096;BME280;24083;55.670;37.568;2023-05-23T03:38:54;99309.75;;;21.45;nan
22096;BME280;24083;55.670;37.568;2023-05-23T03:41:25;99308.34;;;21.61;nan
22096;BME280;24083;55.670;37.568;2023-05-23T03:43:59;99298.88;;;21.68;nan
22096;BME280;24083;55.670;37.568;2023-05-23T03:46:26;99299.69;;;21.78;nan
22096;BME280;24083;55.670;37.568;2023-05-23T03:57:47;99292.19;;;21.64;nan
22096;BME280;24083;55.670;37.568;2023-05-23T04:06:02;99286.75;;;22.23;nan
22096;BME280;24083;55.670;37.568;2023-05-23T04:08:32;99294.31;;;22.18;nan
22096;BME280;24083;55.670;37.568;2023-05-23T04:11:01;99301.94;;;21.73;nan
22096;BME280;24083;55.670;37.568;2023-05-23T04:13:44;99305.84;;;21.49;nan
22096;BME280;24083;55.670;37.568;2023-05-23T04:16:13;99304.03;;;21.89;nan
22096;BME280;24083;55.670;37.568;2023-05-23T04:25:24;99300.72;;;22.15;nan
22096;BME280;24083;55.670;37.568;2023-05-23T04:28:06;99303.56;;;21.94;nan
22096;BME280;24083;55.670;37.568;2023-05-23T04:33:49;99297.16;;;21.87;nan
22096;BME280;24083;55.670;37.568;2023-05-23T04:36:21;99313.06;;;22.06;nan
22096;BME280;24083;55.670;37.568;2023-05-23T04:48:45;99296.84;;;22.00;nan
22096;BME280;24083;55.670;37.568;2023-05-23T04:51:14;99290.66;;;23.31;nan
22096;BME280;24083;55.670;37.568;2023-05-23T04:57:13;99293.34;;;23.03;nan
22096;BME280;24083;55.670;37.568;2023-05-23T04:59:40;99293.06;;;23.42;nan
22096;BME280;24083;55.670;37.568;2023-05-23T05:04:59;99285.19;;;23.32;nan
22096;BME280;24083;55.670;37.568;2023-05-23T05:07:26;99281.34;;;23.71;nan
22096;BME280;24083;55.670;37.568;2023-05-23T05:09:54;99293.75;;;23.44;nan
22096;BME280;24083;55.670;37.568;2023-05-23T05:12:21;99318.25;;;23.02;nan
22096;BME280;24083;55.670;37.568;2023-05-23T05:14:48;99309.63;;;23.36;nan
22096;BME280;24083;55.670;37.568;2023-05-23T05:20:07;99322.78;;;22.91;nan
22096;BME280;24083;55.670;37.568;2023-05-23T05:22:39;99322.91;;;22.72;nan
22096;BME280;24083;55.670;37.568;2023-05-23T05:25:07;99322.53;;;22.09;nan
22096;BME280;24083;55.670;37.568;2023-05-23T05:27:41;99321.31;;;21.84;nan
22096;BME280;24083;55.670;37.568;2023-05-23T05:30:27;99315.75;;;21.97;nan
22096;BME280;24083;55.670;37.568;2023-05-23T05:33:00;99316.97;;;22.02;nan
22096;BME280;24083;55.670;37.568;2023-05-23T05:35:27;99317.13;;;22.38;nan
22096;BME280;24083;55.670;37.568;2023-05-23T05:37:54;99313.75;;;22.56;nan
22096;BME280;24083;55.670;37.568;2023-05-23T05:40:21;99312.94;;;22.46;nan
22096;BME280;24083;55.670;37.568;2023-05-23T05:42:48;99316.94;;;22.22;nan
22096;BME280;24083;55.670;37.568;2023-05-23T05:45:14;99315.72;;;22.54;nan
22096;BME280;24083;55.670;37.568;2023-05-23T05:47:41;99313.25;;;22.98;nan
22096;BME280;24083;55.670;37.568;2023-05-23T05:50:07;99310.03;;;22.77;nan
22096;BME280;24083;55.670;37.568;2023-05-23T05:52:37;99306.28;;;23.34;nan
22096;BME280;24083;55.670;37.568;2023-05-23T05:55:05;99312.31;;;23.54;nan
22096;BME280;24083;55.670;37.568;2023-05-23T05:57:32;99317.78;;;22.88;nan
22096;BME280;24083;55.670;37.568;2023-05-23T05:59:59;99311.63;;;23.34;nan
22096;BME280;24083;55.670;37.568;2023-05-23T06:02:26;99306.31;;;23.96;nan
22096;BME280;24083;55.670;37.568;2023-05-23T06:05:02;99309.94;;;23.69;nan
22096;BME280;24083;55.670;37.568;2023-05-23T06:07:29;99300.97;;;23.70;nan
22096;BME280;24083;55.670;37.568;2023-05-23T06:09:56;99303.09;;;24.37;nan
22096;BME280;24083;55.670;37.568;2023-05-23T06:12:23;99301.00;;;24.23;nan
22096;BME280;24083;55.670;37.568;2023-05-23T06:14:49;99303.63;;;23.70;nan
22096;BME280;24083;55.670;37.568;2023-05-23T06:17:16;99294.41;;;24.35;nan
22096;BME280;24083;55.670;37.568;2023-05-23T06:19:46;99303.63;;;24.92;nan
22096;BME280;24083;55.670;37.568;2023-05-23T06:22:12;99296.72;;;25.32;nan
22096;BME280;24083;55.670;37.568;2023-05-23T06:24:43;99280.19;;;25.12;nan
22096;BME280;24083;55.670;37.568;2023-05-23T06:27:30;99271.72;;;25.67;nan
22096;BME280;24083;55.670;37.568;2023-05-23T06:30:02;99274.38;;;25.91;nan
22096;BME280;24083;55.670;37.568;2023-05-23T06:32:29;99286.69;;;23.97;nan
22096;BME280;24083;55.670;37.568;2023-05-23T06:35:00;99277.19;;;24.64;nan
22096;BME280;24083;55.670;37.568;2023-05-23T06:37:27;99266.66;;;25.97;nan
22096;BME280;24083;55.670;37.568;2023-05-23T06:39:58;99269.03;;;25.42;nan
22096;BME280;24083;55.670;37.568;2023-05-23T06:42:23;99259.13;;;26.08;nan
22096;BME280;24083;55.670;37.568;2023-05-23T06:47:43;99254.03;;;25.82;nan
22096;BME280;24083;55.670;37.568;2023-05-23T06:50:16;99260.97;;;26.16;nan
22096;BME280;24083;55.670;37.568;2023-05-23T06:52:46;99257.03;;;25.54;nan
22096;BME280;24083;55.670;37.568;2023-05-23T06:55:13;99261.38;;;25.80;nan
22096;BME280;24083;55.670;37.568;2023-05-23T06:57:45;99251.53;;;26.37;nan
22096;BME280;24083;55.670;37.568;2023-05-23T07:00:13;99245.56;;;26.27;nan
22096;BME280;24083;55.670;37.568;2023-05-23T07:02:55;99243.50;;;26.45;nan
22096;BME280;24083;55.670;37.568;2023-05-23T07:05:27;99226.84;;;26.35;nan
22096;BME280;24083;55.670;37.568;2023-05-23T07:10:41;99231.44;;;27.04;nan
22096;BME280;24083;55.670;37.568;2023-05-23T07:13:19;99232.69;;;26.62;nan
22096;BME280;24083;55.670;37.568;2023-05-23T07:18:45;99234.97;;;26.73;nan
22096;BME280;24083;55.670;37.568;2023-05-23T07:21:12;99228.97;;;27.26;nan
22096;BME280;24083;55.670;37.568;2023-05-23T07:23:39;99231.09;;;26.84;nan
22096;BME280;24083;55.670;37.568;2023-05-23T07:26:17;99239.44;;;27.89;nan
22096;BME280;24083;55.670;37.568;2023-05-23T07:28:50;99222.78;;;27.49;nan
22096;BME280;24083;55.670;37.568;2023-05-23T07:33:59;99225.75;;;28.44;nan
22096;BME280;24083;55.670;37.568;2023-05-23T07:36:40;99226.13;;;27.81;nan
22096;BME280;24083;55.670;37.568;2023-05-23T07:39:10;99226.66;;;28.51;nan
22096;BME280;24083;55.670;37.568;2023-05-23T07:44:07;99225.59;;;28.31;nan
22096;BME280;24083;55.670;37.568;2023-05-23T07:49:04;99234.66;;;28.29;nan
22096;BME280;24083;55.670;37.568;2023-05-23T07:54:02;99236.19;;;27.94;nan
22096;BME280;24083;55.670;37.568;2023-05-23T07:58:58;99241.59;;;26.94;nan
22096;BME280;24083;55.670;37.568;2023-05-23T08:01:24;99250.50;;;26.46;nan
22096;BME280;24083;55.670;37.568;2023-05-23T08:03:54;99248.34;;;27.28;nan
22096;BME280;24083;55.670;37.568;2023-05-23T08:06:27;99238.53;;;28.12;nan
22096;BME280;24083;55.670;37.568;2023-05-23T08:08:59;99244.91;;;26.96;nan
22096;BME280;24083;55.670;37.568;2023-05-23T08:11:27;99247.19;;;27.84;nan
22096;BME280;24083;55.670;37.568;2023-05-23T08:13:59;99251.72;;;27.98;nan
22096;BME280;24083;55.670;37.568;2023-05-23T08:16:45;99236.50;;;28.81;nan
22096;BME280;24083;55.670;37.568;2023-05-23T08:19:17;99240.38;;;27.81;nan
22096;BME280;24083;55.670;37.568;2023-05-23T08:21:45;99238.06;;;28.75;nan
22096;BME280;24083;55.670;37.568;2023-05-23T08:24:11;99238.59;;;27.89;nan
22096;BME280;24083;55.670;37.568;2023-05-23T08:26:38;99233.88;;;29.53;nan
22096;BME280;24083;55.670;37.568;2023-05-23T08:29:10;99235.75;;;29.09;nan
22096;BME280;24083;55.670;37.568;2023-05-23T08:31:47;99227.91;;;29.07;nan
22096;BME280;24083;55.670;37.568;2023-05-23T08:34:15;99231.47;;;29.14;nan
22096;BME280;24083;55.670;37.568;2023-05-23T08:36:41;99241.41;;;29.21;nan
22096;BME280;24083;55.670;37.568;2023-05-23T08:39:12;99224.41;;;30.27;nan
22096;BME280;24083;55.670;37.568;2023-05-23T08:44:37;99222.09;;;29.32;nan
22096;BME280;24083;55.670;37.568;2023-05-23T08:47:05;99229.63;;;27.66;nan
22096;BME280;24083;55.670;37.568;2023-05-23T08:50:05;99222.22;;;27.68;nan
22096;BME280;24083;55.670;37.568;2023-05-23T08:52:34;99218.06;;;28.93;nan
22096;BME280;24083;55.670;37.568;2023-05-23T08:55:04;99231.69;;;28.24;nan
22096;BME280;24083;55.670;37.568;2023-05-23T08:57:31;99220.31;;;29.17;nan
22096;BME280;24083;55.670;37.568;2023-05-23T09:00:07;99222.50;;;28.85;nan
22096;BME280;24083;55.670;37.568;2023-05-23T09:05:56;99229.63;;;28.56;nan
22096;BME280;24083;55.670;37.568;2023-05-23T09:08:22;99239.41;;;27.13;nan
22096;BME280;24083;55.670;37.568;2023-05-23T09:10:56;99236.69;;;27.97;nan
22096;BME280;24083;55.670;37.568;2023-05-23T09:13:24;99242.22;;;28.41;nan
22096;BME280;24083;55.670;37.568;2023-05-23T09:18:43;99248.38;;;28.41;nan
22096;BME280;24083;55.670;37.568;2023-05-23T09:21:13;99254.53;;;28.72;nan
22096;BME280;24083;55.670;37.568;2023-05-23T09:23:49;99254.13;;;28.53;nan
22096;BME280;24083;55.670;37.568;2023-05-23T09:26:19;99252.66;;;28.06;nan
22096;BME280;24083;55.670;37.568;2023-05-23T09:28:52;99253.34;;;27.69;nan
22096;BME280;24083;55.670;37.568;2023-05-23T09:31:26;99261.59;;;26.27;nan
22096;BME280;24083;55.670;37.568;2023-05-23T09:33:56;99269.19;;;27.09;nan
22096;BME280;24083;55.670;37.568;2023-05-23T09:36:22;99266.41;;;27.26;nan
22096;BME280;24083;55.670;37.568;2023-05-23T09:38:48;99270.88;;;27.57;nan
22096;BME280;24083;55.670;37.568;2023-05-23T09:41:18;99267.59;;;26.29;nan
22096;BME280;24083;55.670;37.568;2023-05-23T09:43:51;99271.69;;;26.88;nan
22096;BME280;24083;55.670;37.568;2023-05-23T09:46:19;99267.38;;;26.87;nan
22096;BME280;24083;55.670;37.568;2023-05-23T09:48:50;99272.53;;;26.80;nan
22096;BME280;24083;55.670;37.568;2023-05-23T09:51:21;99262.91;;;26.71;nan
22096;BME280;24083;55.670;37.568;2023-05-23T09:56:26;99277.72;;;27.36;nan
22096;BME280;24083;55.670;37.568;2023-05-23T09:58:53;99270.00;;;26.95;nan
22096;BME280;24083;55.670;37.568;2023-05-23T10:01:20;99273.81;;;26.21;nan
22096;BME280;24083;55.670;37.568;2023-05-23T10:03:49;99275.63;;;26.29;nan
22096;BME280;24083;55.670;37.568;2023-05-23T10:06:22;99277.06;;;26.79;nan
22096;BME280;24083;55.670;37.568;2023-05-23T10:09:01;99291.41;;;25.66;nan
22096;BME280;24083;55.670;37.568;2023-05-23T10:14:01;99284.53;;;25.96;nan
22096;BME280;24083;55.670;37.568;2023-05-23T10:16:30;99280.63;;;26.32;nan
22096;BME280;24083;55.670;37.568;2023-05-23T10:19:00;99278.28;;;26.37;nan
22096;BME280;24083;55.670;37.568;2023-05-23T10:21:29;99289.41;;;25.68;nan
22096;BME280;24083;55.670;37.568;2023-05-23T10:23:59;99286.41;;;25.54;nan
22096;BME280;24083;55.670;37.568;2023-05-23T10:26:26;99275.50;;;26.22;nan
22096;BME280;24083;55.670;37.568;2023-05-23T10:28:52;99284.72;;;25.78;nan
22096;BME280;24083;55.670;37.568;2023-05-23T10:31:18;99283.63;;;26.29;nan
22096;BME280;24083;55.670;37.568;2023-05-23T10:33:52;99291.50;;;26.62;nan
22096;BME280;24083;55.670;37.568;2023-05-23T10:36:23;99292.88;;;25.93;nan
22096;BME280;24083;55.670;37.568;2023-05-23T10:41:42;99294.03;;;25.32;nan
22096;BME280;24083;55.670;37.568;2023-05-23T10:47:36;99299.38;;;25.24;nan
22096;BME280;24083;55.670;37.568;2023-05-23T10:50:03;99296.94;;;24.10;nan
22096;BME280;24083;55.670;37.568;2023-05-23T10:52:30;99302.91;;;24.73;nan
22096;BME280;24083;55.670;37.568;2023-05-23T10:55:11;99303.69;;;23.78;nan
22096;BME280;24083;55.670;37.568;2023-05-23T10:57:39;99307.75;;;24.43;nan
22096;BME280;24083;55.670;37.568;2023-05-23T11:00:13;99311.28;;;24.79;nan
22096;BME280;24083;55.670;37.568;2023-05-23T11:05:35;99305.00;;;23.74;nan
22096;BME280;24083;55.670;37.568;2023-05-23T11:10:59;99307.06;;;24.07;nan
22096;BME280;24083;55.670;37.568;2023-05-23T11:14:11;99311.94;;;23.31;nan
22096;BME280;24083;55.670;37.568;2023-05-23T11:16:22;99311.47;;;23.53;nan
22096;BME280;24083;55.670;37.568;2023-05-23T11:18:48;99310.03;;;23.41;nan
22096;BME280;24083;55.670;37.568;2023-05-23T11:21:14;99308.06;;;23.25;nan
22096;BME280;24083;55.670;37.568;2023-05-23T11:23:40;99311.56;;;23.44;nan
22096;BME280;24083;55.670;37.568;2023-05-23T11:28:58;99321.72;;;23.30;nan
22096;BME280;24083;55.670;37.568;2023-05-23T11:31:28;99325.25;;;23.49;nan
22096;BME280;24083;55.670;37.568;2023-05-23T11:33:55;99318.66;;;23.61;nan
22096;BME280;24083;55.670;37.568;2023-05-23T11:36:23;99312.75;;;23.67;nan
22096;BME280;24083;55.670;37.568;2023-05-23T11:41:43;99317.38;;;23.83;nan
22096;BME280;24083;55.670;37.568;2023-05-23T11:44:12;99312.72;;;24.04;nan
22096;BME280;24083;55.670;37.568;2023-05-23T11:46:56;99311.72;;;23.86;nan
22096;BME280;24083;55.670;37.568;2023-05-23T11:49:26;99319.09;;;24.11;nan
22096;BME280;24083;55.670;37.568;2023-05-23T11:52:00;99309.25;;;24.11;nan
22096;BME280;24083;55.670;37.568;2023-05-23T11:54:30;99303.34;;;24.26;nan
22096;BME280;24083;55.670;37.568;2023-05-23T12:03:30;99304.59;;;24.13;nan
22096;BME280;24083;55.670;37.568;2023-05-23T12:05:57;99303.72;;;23.42;nan
22096;BME280;24083;55.670;37.568;2023-05-23T12:08:25;99287.75;;;24.31;nan
22096;BME280;24083;55.670;37.568;2023-05-23T12:14:12;99278.53;;;25.77;nan
22096;BME280;24083;55.670;37.568;2023-05-23T12:16:48;99279.06;;;25.81;nan
22096;BME280;24083;55.670;37.568;2023-05-23T12:19:16;99281.84;;;26.52;nan
22096;BME280;24083;55.670;37.568;2023-05-23T12:21:46;99275.59;;;26.37;nan
22096;BME280;24083;55.670;37.568;2023-05-23T12:24:19;99273.19;;;25.77;nan
22096;BME280;24083;55.670;37.568;2023-05-23T12:30:06;99261.69;;;25.93;nan
22096;BME280;24083;55.670;37.568;2023-05-23T12:32:38;99260.56;;;26.36;nan
22096;BME280;24083;55.670;37.568;2023-05-23T12:35:05;99253.25;;;26.30;nan
22096;BME280;24083;55.670;37.568;2023-05-23T12:37:30;99248.00;;;26.76;nan
22096;BME280;24083;55.670;37.568;2023-05-23T12:40:08;99244.28;;;27.32;nan
22096;BME280;24083;55.670;37.568;2023-05-23T12:54:40;99230.59;;;26.80;nan
22096;BME280;24083;55.670;37.568;2023-05-23T12:57:21;99234.63;;;26.76;nan
22096;BME280;24083;55.670;37.568;2023-05-23T12:59:47;99222.78;;;27.49;nan
22096;BME280;24083;55.670;37.568;2023-05-23T13:06:11;99222.16;;;27.92;nan
22096;BME280;24083;55.670;37.568;2023-05-23T13:11:26;99216.00;;;27.15;nan
22096;BME280;24083;55.670;37.568;2023-05-23T13:13:52;99212.88;;;26.16;nan
22096;BME280;24083;55.670;37.568;2023-05-23T13:16:20;99216.50;;;27.18;nan
22096;BME280;24083;55.670;37.568;2023-05-23T13:18:46;99218.53;;;26.93;nan
22096;BME280;24083;55.670;37.568;2023-05-23T13:21:12;99214.78;;;28.97;nan
22096;BME280;24083;55.670;37.568;2023-05-23T13:24:07;99207.47;;;29.06;nan
22096;BME280;24083;55.670;37.568;2023-05-23T13:27:13;99215.47;;;29.28;nan
22096;BME280;24083;55.670;37.568;2023-05-23T13:29:40;99210.50;;;29.82;nan
22096;BME280;24083;55.670;37.568;2023-05-23T13:32:08;99207.84;;;30.17;nan
22096;BME280;24083;55.670;37.568;2023-05-23T13:35:02;99216.94;;;30.16;nan
22096;BME280;24083;55.670;37.568;2023-05-23T13:40:27;99214.47;;;29.57;nan
22096;BME280;24083;55.670;37.568;2023-05-23T13:42:56;99219.94;;;29.21;nan
22096;BME280;24083;55.670;37.568;2023-05-23T13:45:23;99215.59;;;28.76;nan
22096;BME280;24083;55.670;37.568;2023-05-23T13:47:53;99220.88;;;26.88;nan
22096;BME280;24083;55.670;37.568;2023-05-23T13:50:20;99222.66;;;27.19;nan
22096;BME280;24083;55.670;37.568;2023-05-23T13:52:57;99217.97;;;27.59;nan
22096;BME280;24083;55.670;37.568;2023-05-23T13:55:43;99227.06;;;27.11;nan
22096;BME280;24083;55.670;37.568;2023-05-23T13:58:10;99215.97;;;27.91;nan
22096;BME280;24083;55.670;37.568;2023-05-23T14:03:08;99221.72;;;27.11;nan
22096;BME280;24083;55.670;37.568;2023-05-23T14:05:34;99212.81;;;26.96;nan
22096;BME280;24083;55.670;37.568;2023-05-23T14:08:07;99218.03;;;26.81;nan
22096;BME280;24083;55.670;37.568;2023-05-23T14:13:56;99222.59;;;27.27;nan
22096;BME280;24083;55.670;37.568;2023-05-23T14:16:23;99216.69;;;27.55;nan
22096;BME280;24083;55.670;37.568;2023-05-23T14:18:52;99210.94;;;27.58;nan
22096;BME280;24083;55.670;37.568;2023-05-23T14:24:43;99206.84;;;27.32;nan
22096;BME280;24083;55.670;37.568;2023-05-23T14:27:09;99209.16;;;27.35;nan
22096;BME280;24083;55.670;37.568;2023-05-23T14:29:51;99207.13;;;26.99;nan
22096;BME280;24083;55.670;37.568;2023-05-23T14:32:18;99203.69;;;27.05;nan
22096;BME280;24083;55.670;37.568;2023-05-23T14:34:45;99205.19;;;27.08;nan
22096;BME280;24083;55.670;37.568;2023-05-23T14:40:19;99203.34;;;26.54;nan
22096;BME280;24083;55.670;37.568;2023-05-23T14:42:45;99197.59;;;26.96;nan
22096;BME280;24083;55.670;37.568;2023-05-23T14:45:12;99193.31;;;26.56;nan
22096;BME280;24083;55.670;37.568;2023-05-23T14:47:37;99188.16;;;26.86;nan
22096;BME280;24083;55.670;37.568;2023-05-23T14:50:03;99195.47;;;26.92;nan
22096;BME280;24083;55.670;37.568;2023-05-23T14:52:33;99189.22;;;27.00;nan
22096;BME280;24083;55.670;37.568;2023-05-23T14:55:12;99189.19;;;26.76;nan
22096;BME280;24083;55.670;37.568;2023-05-23T14:57:43;99181.09;;;26.30;nan
22096;BME280;24083;55.670;37.568;2023-05-23T15:00:10;99173.34;;;26.98;nan
22096;BME280;24083;55.670;37.568;2023-05-23T15:02:41;99164.97;;;25.50;nan
22096;BME280;24083;55.670;37.568;2023-05-23T15:05:09;99161.34;;;25.01;nan
22096;BME280;24083;55.670;37.568;2023-05-23T15:07:37;99163.69;;;26.42;nan
22096;BME280;24083;55.670;37.568;2023-05-23T15:10:04;99161.53;;;26.61;nan
22096;BME280;24083;55.670;37.568;2023-05-23T15:12:31;99152.75;;;26.12;nan
22096;BME280;24083;55.670;37.568;2023-05-23T15:14:58;99157.97;;;25.49;nan
22096;BME280;24083;55.670;37.568;2023-05-23T15:17:36;99150.97;;;26.04;nan
22096;BME280;24083;55.670;37.568;2023-05-23T15:20:02;99148.81;;;26.00;nan
22096;BME280;24083;55.670;37.568;2023-05-23T15:25:28;99140.50;;;25.95;nan
22096;BME280;24083;55.670;37.568;2023-05-23T15:27:54;99134.00;;;24.91;nan
22096;BME280;24083;55.670;37.568;2023-05-23T15:30:21;99143.28;;;23.68;nan
22096;BME280;24083;55.670;37.568;2023-05-23T15:32:47;99140.06;;;23.56;nan
22096;BME280;24083;55.670;37.568;2023-05-23T15:35:13;99149.34;;;23.78;nan
22096;BME280;24083;55.670;37.568;2023-05-23T15:37:40;99131.03;;;24.78;nan
22096;BME280;24083;55.670;37.568;2023-05-23T15:42:36;99140.66;;;25.28;nan
22096;BME280;24083;55.670;37.568;2023-05-23T15:54:18;99133.81;;;23.39;nan
22096;BME280;24083;55.670;37.568;2023-05-23T15:56:46;99133.91;;;23.55;nan
22096;BME280;24083;55.670;37.568;2023-05-23T15:59:13;99126.56;;;23.05;nan
22096;BME280;24083;55.670;37.568;2023-05-23T16:01:55;99129.78;;;23.35;nan
22096;BME280;24083;55.670;37.568;2023-05-23T16:04:23;99119.13;;;23.96;nan
22096;BME280;24083;55.670;37.568;2023-05-23T16:06:50;99125.25;;;22.64;nan
22096;BME280;24083;55.670;37.568;2023-05-23T16:15:42;99127.22;;;22.62;nan
22096;BME280;24083;55.670;37.568;2023-05-23T16:18:48;99126.88;;;22.01;nan
22096;BME280;24083;55.670;37.568;2023-05-23T16:24:28;99132.56;;;22.06;nan
22096;BME280;24083;55.670;37.568;2023-05-23T16:29:26;99122.63;;;23.09;nan
22096;BME280;24083;55.670;37.568;2023-05-23T16:35:09;99124.16;;;22.93;nan
22096;BME280;24083;55.670;37.568;2023-05-23T16:37:38;99121.38;;;23.74;nan
22096;BME280;24083;55.670;37.568;2023-05-23T16:46:28;99127.44;;;23.32;nan
22096;BME280;24083;55.670;37.568;2023-05-23T16:48:59;99129.31;;;23.66;nan
22096;BME280;24083;55.670;37.568;2023-05-23T16:51:25;99128.09;;;23.25;nan
22096;BME280;24083;55.670;37.568;2023-05-23T16:53:52;99145.41;;;22.57;nan
22096;BME280;24083;55.670;37.568;2023-05-23T16:56:19;99140.59;;;23.60;nan
22096;BME280;24083;55.670;37.568;2023-05-23T17:01:39;99146.72;;;23.34;nan
22096;BME280;24083;55.670;37.568;2023-05-23T17:07:21;99145.72;;;23.26;nan
22096;BME280;24083;55.670;37.568;2023-05-23T17:20:18;99142.16;;;22.35;nan
22096;BME280;24083;55.670;37.568;2023-05-23T17:24:06;99158.44;;;21.57;nan
22096;BME280;24083;55.670;37.568;2023-05-23T17:26:32;99155.63;;;21.58;nan
22096;BME280;24083;55.670;37.568;2023-05-23T17:31:31;99131.19;;;22.02;nan
22096;BME280;24083;55.670;37.568;2023-05-23T17:34:12;99125.44;;;21.22;nan
22096;BME280;24083;55.670;37.568;2023-05-23T17:43:28;99125.50;;;21.97;nan
22096;BME280;24083;55.670;37.568;2023-05-23T17:45:54;99125.78;;;21.66;nan
22096;BME280;24083;55.670;37.568;2023-05-23T17:51:28;99111.41;;;21.97;nan
22096;BME280;24083;55.670;37.568;2023-05-23T17:54:10;99095.84;;;22.66;nan
22096;BME280;24083;55.670;37.568;2023-05-23T17:56:39;99104.00;;;22.36;nan
22096;BME280;24083;55.670;37.568;2023-05-23T18:01:58;99111.53;;;21.95;nan
22096;BME280;24083;55.670;37.568;2023-05-23T18:04:25;99106.38;;;21.93;nan
22096;BME280;24083;55.670;37.568;2023-05-23T18:06:51;99095.28;;;21.80;nan
22096;BME280;24083;55.670;37.568;2023-05-23T18:12:26;99088.91;;;22.19;nan
22096;BME280;24083;55.670;37.568;2023-05-23T18:14:57;99093.41;;;21.53;nan
22096;BME280;24083;55.670;37.568;2023-05-23T18:20:53;99096.06;;;20.85;nan
22096;BME280;24083;55.670;37.568;2023-05-23T18:23:21;99096.97;;;21.24;nan
22096;BME280;24083;55.670;37.568;2023-05-23T18:25:47;99095.78;;;20.88;nan
22096;BME280;24083;55.670;37.568;2023-05-23T18:33:48;99100.38;;;20.96;nan
22096;BME280;24083;55.670;37.568;2023-05-23T18:36:14;99089.09;;;20.84;nan
22096;BME280;24083;55.670;37.568;2023-05-23T18:38:43;99093.53;;;21.13;nan
22096;BME280;24083;55.670;37.568;2023-05-23T18:41:25;99088.50;;;21.10;nan
22096;BME280;24083;55.670;37.568;2023-05-23T18:43:56;99094.25;;;21.63;nan
22096;BME280;24083;55.670;37.568;2023-05-23T18:46:23;99084.25;;;21.37;nan
22096;BME280;24083;55.670;37.568;2023-05-23T18:49:20;99086.00;;;21.18;nan
22096;BME280;24083;55.670;37.568;2023-05-23T18:51:59;99090.06;;;21.50;nan
22096;BME280;24083;55.670;37.568;2023-05-23T19:25:51;99086.06;;;21.74;nan
22096;BME280;24083;55.670;37.568;2023-05-23T19:29:22;99090.19;;;20.92;nan
22096;BME280;24083;55.670;37.568;2023-05-23T19:31:49;99084.19;;;21.57;nan
22096;BME280;24083;55.670;37.568;2023-05-23T19:34:16;99082.22;;;21.59;nan
22096;BME280;24083;55.670;37.568;2023-05-23T19:47:16;99072.03;;;21.54;nan
22096;BME280;24083;55.670;37.568;2023-05-23T19:53:22;99071.91;;;21.56;nan
22096;BME280;24083;55.670;37.568;2023-05-23T19:55:55;99067.88;;;20.94;nan